createdAt,value
2022-11-01T00:01:06.387Z,1
2022-11-01T00:03:02.957Z,1
2022-11-01T00:05:06.318Z,1
2022-11-01T00:07:02.371Z,1
2022-11-01T00:09:02.608Z,1
2022-11-01T00:11:03.154Z,1
2022-11-01T00:13:06.363Z,1
2022-11-01T00:15:06.322Z,1
2022-11-01T00:17:02.457Z,1
2022-11-01T00:19:06.410Z,1
2022-11-01T00:21:03.273Z,1
2022-11-01T00:23:06.316Z,1
2022-11-01T00:25:06.362Z,1
2022-11-01T00:27:05.940Z,1
2022-11-01T00:29:02.291Z,1
2022-11-01T00:31:02.305Z,1
2022-11-01T00:33:06.416Z,1
2022-11-01T00:35:09.389Z,1
2022-11-01T00:39:03.264Z,1
2022-11-01T00:41:03.318Z,1
2022-11-01T00:43:02.880Z,1
2022-11-01T00:45:09.503Z,1
2022-11-01T00:47:06.443Z,1
2022-11-01T00:49:02.332Z,1
2022-11-01T00:51:02.240Z,1
2022-11-01T00:52:59.577Z,1
2022-11-01T00:55:02.846Z,1
2022-11-01T00:57:06.277Z,1
2022-11-01T00:59:03.158Z,1
2022-11-01T01:01:02.928Z,1
2022-11-01T01:03:05.968Z,1
2022-11-01T01:05:03.123Z,1
2022-11-01T01:07:02.987Z,1
2022-11-01T01:09:03.334Z,1
2022-11-01T01:11:03.205Z,1
2022-11-01T01:13:00.567Z,1
2022-11-01T01:15:09.497Z,1
2022-11-01T01:17:03.091Z,1
2022-11-01T01:19:03.439Z,1
2022-11-01T01:21:02.773Z,1
2022-11-01T01:23:06.334Z,1
2022-11-01T01:25:02.687Z,1
2022-11-01T01:27:06.429Z,1
2022-11-01T01:29:09.346Z,1
2022-11-01T01:31:03.212Z,1
2022-11-01T01:33:02.773Z,1
2022-11-01T01:35:02.972Z,1
2022-11-01T01:37:06.245Z,1
2022-11-01T01:39:02.817Z,1
2022-11-01T01:41:09.623Z,1
2022-11-01T01:43:06.441Z,1
2022-11-01T01:45:03.006Z,1
2022-11-01T01:47:00.051Z,1
2022-11-01T01:49:02.387Z,1
2022-11-01T01:51:06.269Z,1
2022-11-01T01:53:03.188Z,1
2022-11-01T01:55:03.109Z,1
2022-11-01T01:57:02.275Z,1
2022-11-01T01:59:03.112Z,1
2022-11-01T02:01:09.809Z,1
2022-11-01T02:03:02.917Z,1
2022-11-01T02:05:06.421Z,1
2022-11-01T02:07:06.179Z,1
2022-11-01T02:09:03.004Z,1
2022-11-01T02:11:02.974Z,1
2022-11-01T02:13:09.554Z,1
2022-11-01T02:15:03.063Z,1
2022-11-01T02:17:05.605Z,1
2022-11-01T02:19:03.025Z,1
2022-11-01T02:21:06.369Z,1
2022-11-01T02:23:02.660Z,1
2022-11-01T02:25:03.359Z,1
2022-11-01T02:27:02.661Z,1
2022-11-01T02:29:04.800Z,1
2022-11-01T02:31:03.092Z,1
2022-11-01T02:33:02.922Z,1
2022-11-01T02:35:03.358Z,1
2022-11-01T02:37:02.839Z,1
2022-11-01T02:39:02.725Z,1
2022-11-01T02:41:09.607Z,1
2022-11-01T02:43:03.153Z,1
2022-11-01T02:45:09.555Z,1
2022-11-01T02:47:03.157Z,1
2022-11-01T02:49:03.128Z,1
2022-11-01T02:51:03.052Z,1
2022-11-01T02:53:03.467Z,1
2022-11-01T02:55:06.391Z,1
2022-11-01T02:57:03.461Z,1
2022-11-01T03:01:02.700Z,1
2022-11-01T03:03:03.290Z,1
2022-11-01T03:05:03.269Z,1
2022-11-01T03:07:06.471Z,1
2022-11-01T03:09:06.569Z,1
2022-11-01T03:11:02.700Z,1
2022-11-01T03:13:03.165Z,1
2022-11-01T03:15:02.424Z,1
2022-11-01T03:17:03.173Z,1
2022-11-01T03:19:06.273Z,1
2022-11-01T03:21:02.806Z,1
2022-11-01T03:23:02.590Z,1
2022-11-01T03:25:02.365Z,1
2022-11-01T03:27:09.574Z,1
2022-11-01T03:29:06.453Z,1
2022-11-01T03:31:02.440Z,1
2022-11-01T03:35:02.913Z,1
2022-11-01T03:37:02.836Z,1
2022-11-01T03:39:02.701Z,1
2022-11-01T03:41:03.238Z,1
2022-11-01T03:43:03.383Z,1
2022-11-01T03:45:06.376Z,1
2022-11-01T03:47:02.344Z,1
2022-11-01T03:49:09.468Z,1
2022-11-01T03:51:06.413Z,1
2022-11-01T03:53:03.250Z,1
2022-11-01T03:55:09.703Z,1
2022-11-01T03:57:06.495Z,1
2022-11-01T03:59:03.313Z,1
2022-11-01T04:01:06.575Z,1
2022-11-01T04:03:02.561Z,1
2022-11-01T04:05:06.555Z,1
2022-11-01T04:07:03.240Z,1
2022-11-01T04:09:03.245Z,1
2022-11-01T04:11:02.953Z,1
2022-11-01T04:13:06.611Z,1
2022-11-01T04:15:02.592Z,1
2022-11-01T04:17:03.070Z,1
2022-11-01T04:19:06.987Z,1
2022-11-01T04:21:09.497Z,1
2022-11-01T04:23:04.939Z,1
2022-11-01T04:25:02.649Z,1
2022-11-01T04:27:03.080Z,1
2022-11-01T04:29:02.395Z,1
2022-11-01T04:31:06.419Z,1
2022-11-01T04:33:06.381Z,1
2022-11-01T04:35:04.751Z,1
2022-11-01T04:37:03.217Z,1
2022-11-01T04:39:03.400Z,1
2022-11-01T04:41:02.499Z,1
2022-11-01T04:43:06.362Z,1
2022-11-01T04:45:03.296Z,1
2022-11-01T04:47:03.083Z,1
2022-11-01T04:49:06.532Z,1
2022-11-01T04:53:09.457Z,1
2022-11-01T04:55:03.117Z,1
2022-11-01T04:57:03.020Z,1
2022-11-01T04:59:03.211Z,1
2022-11-01T05:01:02.414Z,1
2022-11-01T05:03:09.563Z,1
2022-11-01T05:05:02.721Z,1
2022-11-01T05:07:03.380Z,1
2022-11-01T05:09:03.170Z,1
2022-11-01T05:11:09.554Z,0
2022-11-01T05:13:06.397Z,0
2022-11-01T05:15:03.281Z,0
2022-11-01T05:17:06.004Z,0
2022-11-01T05:19:04.007Z,0.1
2022-11-01T05:21:06.401Z,0.1
2022-11-01T05:23:03.421Z,0.1
2022-11-01T05:25:06.454Z,0.2
2022-11-01T05:27:02.873Z,0.3
2022-11-01T05:29:05.075Z,0.4
2022-11-01T05:31:03.352Z,0.5
2022-11-01T05:33:02.811Z,0.7
2022-11-01T05:35:09.699Z,1.1
2022-11-01T05:37:02.680Z,1.5
2022-11-01T05:39:03.278Z,2.1
2022-11-01T05:41:03.308Z,3
2022-11-01T05:43:02.673Z,4.5
2022-11-01T05:45:03.451Z,6.4
2022-11-01T05:49:02.321Z,12.2
2022-11-01T05:51:02.889Z,18.2
2022-11-01T05:53:03.170Z,27.1
2022-11-01T05:55:03.136Z,51.9
2022-11-01T05:57:02.910Z,81.5
2022-11-01T05:59:02.550Z,90
2022-11-01T06:01:09.607Z,70.1
2022-11-01T06:03:03.215Z,63.4
2022-11-01T06:07:02.407Z,77.5
2022-11-01T06:09:06.542Z,85.6
2022-11-01T06:11:02.907Z,99.5
2022-11-01T06:13:02.881Z,121.5
2022-11-01T06:15:03.064Z,148.4
2022-11-01T06:17:02.941Z,190.6
2022-11-01T06:19:09.640Z,232.8
2022-11-01T06:21:06.293Z,257.2
2022-11-01T06:23:06.430Z,298.9
2022-11-01T06:25:02.951Z,330.3
2022-11-01T06:27:02.862Z,383.8
2022-11-01T06:29:06.409Z,424.1
2022-11-01T06:31:02.959Z,445.9
2022-11-01T06:33:03.471Z,492.7
2022-11-01T06:35:02.983Z,544.6
2022-11-01T06:37:02.636Z,601.8
2022-11-01T06:39:02.636Z,665.1
2022-11-01T06:41:09.496Z,699.2
2022-11-01T06:43:06.505Z,772.8
2022-11-01T06:45:03.346Z,854.1
2022-11-01T06:47:02.877Z,943.9
2022-11-01T06:49:02.406Z,1096.6
2022-11-01T06:51:06.411Z,1152.9
2022-11-01T06:53:02.935Z,1096.6
2022-11-01T06:55:09.576Z,1043.1
2022-11-01T06:57:02.939Z,1096.6
2022-11-01T06:59:06.363Z,1152.9
2022-11-01T07:01:03.603Z,1212
2022-11-01T07:03:06.405Z,1274.1
2022-11-01T07:05:02.867Z,1339.4
2022-11-01T07:07:06.561Z,1408.1
2022-11-01T07:09:06.679Z,1480.3
2022-11-01T07:11:06.400Z,1556.2
2022-11-01T07:13:02.842Z,1480.3
2022-11-01T07:15:03.302Z,1556.2
2022-11-01T07:17:02.960Z,1480.3
2022-11-01T07:19:02.744Z,1556.2
2022-11-01T07:27:09.568Z,1556.2
2022-11-01T07:29:02.848Z,1556.2
2022-11-01T07:31:09.477Z,1556.2
2022-11-01T07:33:03.334Z,1556.2
2022-11-01T07:35:03.113Z,1636
2022-11-01T07:37:09.541Z,1808
2022-11-01T07:39:06.680Z,1808
2022-11-01T07:41:09.588Z,1900.7
2022-11-01T07:42:59.793Z,1900.7
2022-11-01T07:45:10.476Z,1998.2
2022-11-01T07:47:02.927Z,2100.6
2022-11-01T07:49:02.493Z,2321.6
2022-11-01T07:51:03.005Z,2565.7
2022-11-01T07:53:02.887Z,2835.6
2022-11-01T07:54:59.914Z,3294.5
2022-11-01T07:57:02.826Z,4023.9
2022-11-01T07:59:06.432Z,5166.8
2022-11-01T08:01:06.511Z,6634.2
2022-11-01T08:03:03.274Z,18958.4
2022-11-01T08:05:03.285Z,25591.1
2022-11-01T08:09:03.199Z,26903.2
2022-11-01T08:11:02.854Z,25591.1
2022-11-01T08:13:02.916Z,28282.5
2022-11-01T08:15:03.151Z,31257
2022-11-01T08:17:03.470Z,32859.6
2022-11-01T08:19:03.255Z,32859.6
2022-11-01T08:21:03.292Z,34544.4
2022-11-01T08:23:03.720Z,34544.4
2022-11-01T08:25:06.494Z,16317.6
2022-11-01T08:27:09.590Z,20952.2
2022-11-01T08:29:02.603Z,10938
2022-11-01T08:31:02.996Z,10404.6
2022-11-01T08:33:04.680Z,7707.9
2022-11-01T08:36:52.097Z,5431.7
2022-11-01T08:40:13.498Z,4023.9
2022-11-01T08:43:33.592Z,2835.6
2022-11-01T08:48:41.432Z,2321.6
2022-11-01T08:53:26.762Z,2208.3
2022-11-01T08:55:25.632Z,2208.3
2022-11-01T08:58:07.703Z,2321.6
2022-11-01T09:01:35.334Z,2321.6
2022-11-01T09:05:11.070Z,2440.6
2022-11-01T09:05:36.181Z,2208.3
2022-11-01T09:07:45.714Z,2208.3
2022-11-01T09:10:02.057Z,2440.6
2022-11-01T09:14:51.026Z,3641
2022-11-01T09:16:39.964Z,3641
2022-11-01T09:21:33.846Z,3827.6
2022-11-01T09:23:25.986Z,4675.1
2022-11-01T09:27:47.030Z,7332
2022-11-01T09:27:50.547Z,7332
2022-11-01T09:33:35.296Z,32859.6
2022-11-01T09:37:44.535Z,40134.8
2022-11-01T09:39:37.917Z,24343
2022-11-01T09:43:18.117Z,5166.8
2022-11-01T09:48:01.633Z,3133.8
2022-11-01T09:50:44.949Z,2835.6
2022-11-01T10:01:41.572Z,2208.3
2022-11-01T10:01:46.111Z,1900.7
2022-11-01T10:10:15.742Z,1900.7
2022-11-01T10:13:21.894Z,1808
2022-11-01T10:18:56.493Z,1900.7
2022-11-01T10:25:51.450Z,2100.6
2022-11-01T10:25:58.549Z,2208.3
2022-11-01T10:29:10.904Z,2440.6
2022-11-01T10:31:06.637Z,2565.7
2022-11-01T10:36:23.352Z,2981
2022-11-01T10:40:36.504Z,4230.2
2022-11-01T10:42:46.580Z,5166.8
2022-11-01T10:46:01.041Z,6310.7
2022-11-01T10:56:24.152Z,6974.4
2022-11-01T10:56:30.014Z,7707.9
2022-11-01T10:59:47.230Z,10404.6
2022-11-01T11:09:36.251Z,14764.8
2022-11-01T11:13:15.914Z,49020.8
2022-11-01T11:18:59.373Z,34544.4
2022-11-01T11:19:10.567Z,38177.4
2022-11-01T11:19:54.183Z,34544.4
2022-11-01T11:21:46.947Z,24343
2022-11-01T11:28:48.558Z,14044.7
2022-11-01T11:34:04.333Z,12708.2
2022-11-01T11:34:41.461Z,8518.5
2022-11-01T11:36:41.902Z,7707.9
2022-11-01T11:52:14.146Z,18033.7
2022-11-01T11:54:12.954Z,16317.6
2022-11-01T11:56:12.532Z,14044.7
2022-11-01T11:58:18.929Z,13359.7
2022-11-01T12:00:12.620Z,19930.4
2022-11-01T12:02:14.896Z,23155.8
2022-11-01T12:04:15.831Z,26903.2
2022-11-01T12:06:12.978Z,32859.6
2022-11-01T12:08:15.669Z,20952.2
2022-11-01T12:10:12.545Z,24343
2022-11-01T12:12:15.965Z,19930.4
2022-11-01T12:14:12.627Z,20952.2
2022-11-01T12:16:15.696Z,16317.6
2022-11-01T12:18:14.555Z,11498.8
2022-11-01T12:20:12.541Z,8103.1
2022-11-01T12:22:22.715Z,8518.5
2022-11-01T12:24:12.837Z,11498.8
2022-11-01T12:26:15.585Z,11498.8
2022-11-01T12:28:15.792Z,24343
2022-11-01T12:32:15.850Z,14044.7
2022-11-01T12:34:12.282Z,22026.5
2022-11-01T12:36:16.972Z,18033.7
2022-11-01T12:38:12.554Z,16317.6
2022-11-01T12:40:20.043Z,12708.2
2022-11-01T12:42:12.531Z,18958.4
2022-11-01T12:44:12.332Z,18033.7
2022-11-01T12:48:12.563Z,15521.8
2022-11-01T12:52:12.841Z,8518.5
2022-11-01T12:54:12.481Z,8518.5
2022-11-01T12:56:16.975Z,7332
2022-11-01T12:58:16.197Z,6310.7
2022-11-01T13:00:15.943Z,8103.1
2022-11-01T13:02:16.050Z,9897.1
2022-11-01T13:04:12.431Z,11498.8
2022-11-01T13:06:12.537Z,9414.4
2022-11-01T13:08:12.565Z,11498.8
2022-11-01T13:10:12.367Z,10404.6
2022-11-01T13:12:12.926Z,10404.6
2022-11-01T13:14:20.043Z,8518.5
2022-11-01T13:16:12.574Z,7707.9
2022-11-01T13:18:13.788Z,6974.4
2022-11-01T13:20:15.979Z,6310.7
2022-11-01T13:22:15.852Z,6310.7
2022-11-01T13:24:12.580Z,5431.7
2022-11-01T13:26:12.461Z,4914.8
2022-11-01T13:28:13.247Z,6002.9
2022-11-01T13:30:12.577Z,4230.2
2022-11-01T13:32:15.953Z,3827.6
2022-11-01T13:34:12.769Z,3827.6
2022-11-01T13:36:15.624Z,4230.2
2022-11-01T13:38:12.367Z,4675.1
2022-11-01T13:40:12.507Z,4914.8
2022-11-01T13:42:12.737Z,6310.7
2022-11-01T13:44:13.293Z,6310.7
2022-11-01T13:46:12.666Z,9897.1
2022-11-01T13:48:15.890Z,10404.6
2022-11-01T13:50:12.892Z,11498.8
2022-11-01T13:52:18.543Z,10404.6
2022-11-01T13:54:12.610Z,10938
2022-11-01T13:56:12.354Z,10404.6
2022-11-01T13:58:19.050Z,8955.3
2022-11-01T14:00:12.645Z,5710.1
2022-11-01T14:02:12.158Z,4914.8
2022-11-01T14:04:12.857Z,4447.1
2022-11-01T14:06:16.119Z,4230.2
2022-11-01T14:08:12.415Z,4023.9
2022-11-01T14:10:13.670Z,4023.9
2022-11-01T14:12:16.150Z,3641
2022-11-01T14:14:15.972Z,3463.4
2022-11-01T14:16:12.506Z,3294.5
2022-11-01T14:18:12.674Z,3463.4
2022-11-01T14:20:15.766Z,3827.6
2022-11-01T14:22:12.780Z,4447.1
2022-11-01T14:24:19.063Z,4023.9
2022-11-01T14:26:15.845Z,3827.6
2022-11-01T14:28:12.389Z,3641
2022-11-01T14:30:16.006Z,3463.4
2022-11-01T14:32:12.773Z,3294.5
2022-11-01T14:36:09.685Z,2981
2022-11-01T14:38:17.096Z,2565.7
2022-11-01T14:40:12.487Z,2321.6
2022-11-01T14:42:12.580Z,2100.6
2022-11-01T14:44:15.933Z,1900.7
2022-11-01T14:46:12.679Z,1719.9
2022-11-01T14:48:15.992Z,1556.2
2022-11-01T14:50:12.429Z,1339.4
2022-11-01T14:52:12.564Z,1212
2022-11-01T14:54:13.469Z,1096.6
2022-11-01T14:56:12.462Z,992.3
2022-11-01T14:58:15.913Z,897.8
2022-11-01T15:00:12.340Z,854.1
2022-11-01T15:02:12.675Z,735.1
2022-11-01T15:04:19.178Z,699.2
2022-11-01T15:06:16.001Z,699.2
2022-11-01T15:08:12.836Z,665.1
2022-11-01T15:10:12.500Z,632.7
2022-11-01T15:12:12.784Z,572.5
2022-11-01T15:14:12.600Z,492.7
2022-11-01T15:16:12.616Z,468.7
2022-11-01T15:18:12.731Z,445.9
2022-11-01T15:20:13.772Z,403.4
2022-11-01T15:22:15.930Z,383.8
2022-11-01T15:24:16.002Z,383.8
2022-11-01T15:26:15.852Z,383.8
2022-11-01T15:28:12.782Z,383.8
2022-11-01T15:32:12.720Z,347.2
2022-11-01T15:34:15.973Z,298.9
2022-11-01T15:36:15.977Z,284.3
2022-11-01T15:38:19.576Z,257.2
2022-11-01T15:40:12.786Z,200.3
2022-11-01T15:42:15.977Z,181.3
2022-11-01T15:46:12.857Z,134.3
2022-11-01T15:48:15.637Z,121.5
2022-11-01T15:50:12.448Z,104.6
2022-11-01T15:56:12.640Z,73.7
2022-11-01T15:58:12.664Z,70.1
2022-11-01T16:00:12.740Z,60.3
2022-11-01T16:02:13.824Z,47
2022-11-01T16:04:12.754Z,34.8
2022-11-01T16:06:16.079Z,22.2
2022-11-01T16:08:12.539Z,16.4
2022-11-01T16:10:12.965Z,12.2
2022-11-01T16:12:12.857Z,9.5
2022-11-01T16:14:19.540Z,6.7
2022-11-01T16:16:12.543Z,5
2022-11-01T16:18:16.153Z,3.7
2022-11-01T16:20:12.675Z,2.9
2022-11-01T16:22:15.685Z,1.9
2022-11-01T16:24:16.085Z,1.3
2022-11-01T16:26:15.598Z,0.9
2022-11-01T16:28:12.605Z,0.6
2022-11-01T16:30:12.440Z,0.4
2022-11-01T16:32:15.585Z,0.3
2022-11-01T16:34:19.243Z,0.2
2022-11-01T16:36:12.541Z,0.1
2022-11-01T16:38:15.231Z,0.1
2022-11-01T16:40:12.495Z,0.1
2022-11-01T16:42:12.741Z,0
2022-11-01T16:44:12.402Z,0
2022-11-01T16:46:12.468Z,0
2022-11-01T16:48:18.426Z,0
2022-11-01T16:50:15.959Z,0
2022-11-01T16:56:34.777Z,1
2022-11-01T16:58:15.700Z,1
2022-11-01T17:00:15.940Z,1
2022-11-01T17:02:12.576Z,1
2022-11-01T17:04:12.601Z,1
2022-11-01T17:06:12.474Z,1
2022-11-01T17:08:16.097Z,1
2022-11-01T17:10:15.538Z,1
2022-11-01T17:12:12.625Z,1
2022-11-01T17:14:12.467Z,1
2022-11-01T17:16:16.032Z,1
2022-11-01T17:18:12.745Z,1
2022-11-01T17:20:15.997Z,1
2022-11-01T17:22:15.551Z,1
2022-11-01T17:24:13.147Z,1
2022-11-01T17:26:12.557Z,0
2022-11-01T17:28:13.782Z,0
2022-11-01T17:30:12.573Z,0
2022-11-01T17:32:12.531Z,0
2022-11-01T17:34:12.384Z,0
2022-11-01T17:36:16.100Z,1
2022-11-01T17:38:12.671Z,1
2022-11-01T17:40:15.793Z,1
2022-11-01T17:44:12.634Z,1
2022-11-01T17:46:12.427Z,1
2022-11-01T17:50:12.573Z,1
2022-11-01T17:52:16.828Z,1
2022-11-01T17:54:16.341Z,0
2022-11-01T17:56:15.978Z,1
2022-11-01T17:58:12.532Z,0
2022-11-01T18:00:16.025Z,1
2022-11-01T18:02:16.259Z,0
2022-11-01T18:04:15.227Z,1
2022-11-01T18:06:13.725Z,1
2022-11-01T18:08:13.569Z,1
2022-11-01T18:10:13.448Z,0
2022-11-01T18:12:16.829Z,1
2022-11-01T18:14:16.785Z,0
2022-11-01T18:16:13.558Z,0
2022-11-01T18:18:13.384Z,0
2022-11-01T18:20:13.674Z,0
2022-11-01T18:22:16.605Z,0
2022-11-01T18:24:15.102Z,0
2022-11-01T18:26:13.429Z,0
2022-11-01T18:28:12.820Z,0
2022-11-01T18:30:12.912Z,0
2022-11-01T18:34:13.300Z,0
2022-11-01T18:36:16.842Z,0
2022-11-01T18:38:13.559Z,0
2022-11-01T18:40:16.457Z,0
2022-11-01T18:42:12.892Z,0
2022-11-01T18:44:15.462Z,0
2022-11-01T18:46:26.618Z,0
2022-11-01T18:48:20.021Z,0
2022-11-01T18:50:16.297Z,0
2022-11-01T18:52:13.033Z,0
2022-11-01T18:54:17.640Z,0
2022-11-01T18:56:14.113Z,0
2022-11-01T18:58:20.111Z,0
2022-11-01T19:00:13.468Z,0
2022-11-01T19:02:13.364Z,0
2022-11-01T19:04:12.897Z,0
2022-11-01T19:06:20.992Z,0
2022-11-01T19:08:16.670Z,0
2022-11-01T19:10:13.301Z,0
2022-11-01T19:12:24.066Z,0
2022-11-01T19:14:16.895Z,0
2022-11-01T19:16:13.347Z,0
2022-11-01T19:18:13.659Z,0
2022-11-01T19:20:14.603Z,0
2022-11-01T19:22:20.007Z,0
2022-11-01T19:24:13.488Z,0
2022-11-01T19:26:16.877Z,0
2022-11-01T19:28:13.622Z,0
2022-11-01T19:30:16.951Z,0
2022-11-01T19:32:13.359Z,0
2022-11-01T19:38:13.651Z,0
2022-11-01T19:40:13.502Z,0
2022-11-01T19:42:13.466Z,0
2022-11-01T19:46:13.752Z,0
2022-11-01T19:48:13.457Z,0
2022-11-01T19:50:16.749Z,0
2022-11-01T19:52:13.489Z,0
2022-11-01T19:54:17.268Z,0
2022-11-01T19:56:13.777Z,0
2022-11-01T19:58:13.707Z,0
2022-11-01T20:00:16.962Z,0
2022-11-01T20:02:20.110Z,0
2022-11-01T20:04:13.421Z,0
2022-11-01T20:06:13.670Z,0
2022-11-01T20:08:20.144Z,1
2022-11-01T20:10:13.420Z,1
2022-11-01T20:12:15.491Z,0
2022-11-01T20:14:17.095Z,1
2022-11-01T20:16:17.895Z,1
2022-11-01T20:18:21.356Z,1
2022-11-01T20:20:13.837Z,1
2022-11-01T20:22:13.659Z,1
2022-11-01T20:24:20.083Z,1
2022-11-01T20:26:14.577Z,1
2022-11-01T20:28:13.722Z,1
2022-11-01T20:32:24.222Z,1
2022-11-01T20:34:13.128Z,1
2022-11-01T20:36:14.889Z,1
2022-11-01T20:38:13.794Z,1
2022-11-01T20:42:20.342Z,1
2022-11-01T20:44:13.937Z,1
2022-11-01T20:46:14.521Z,1
2022-11-01T20:48:15.059Z,1
2022-11-01T20:50:12.909Z,1
2022-11-01T20:52:34.222Z,1
2022-11-01T20:54:17.757Z,1
2022-11-01T20:56:13.371Z,1
2022-11-01T20:58:13.879Z,1
2022-11-01T21:00:16.866Z,1
2022-11-01T21:02:13.599Z,1
2022-11-01T21:04:13.542Z,1
2022-11-01T21:06:17.676Z,1
2022-11-01T21:08:18.169Z,1
2022-11-01T21:10:20.265Z,1
2022-11-01T21:12:13.519Z,1
2022-11-01T21:14:20.656Z,1
2022-11-01T21:16:21.180Z,1
2022-11-01T21:18:13.598Z,1
2022-11-01T21:20:10.706Z,1
2022-11-01T21:22:13.226Z,1
2022-11-01T21:24:13.392Z,1
2022-11-01T21:26:13.362Z,1
2022-11-01T21:28:13.504Z,1
2022-11-01T21:30:13.467Z,1
2022-11-01T21:32:17.667Z,1
2022-11-01T21:34:13.028Z,1
2022-11-01T21:36:13.288Z,1
2022-11-01T21:38:14.115Z,1
2022-11-01T21:40:19.597Z,1
2022-11-01T21:42:16.912Z,1
2022-11-01T21:44:13.853Z,1
2022-11-01T21:46:13.462Z,1
2022-11-01T21:48:17.041Z,1
2022-11-01T21:50:13.458Z,1
2022-11-01T21:52:16.848Z,1
2022-11-01T21:54:14.014Z,1
2022-11-01T21:56:12.791Z,1
2022-11-01T21:58:13.888Z,1
2022-11-01T22:00:13.066Z,1
2022-11-01T22:02:13.619Z,1
2022-11-01T22:04:13.816Z,1
2022-11-01T22:08:13.483Z,1
2022-11-01T22:10:13.509Z,1
2022-11-01T22:12:16.955Z,1
2022-11-01T22:14:12.770Z,1
2022-11-01T22:16:13.441Z,1
2022-11-01T22:18:13.437Z,1
2022-11-01T22:20:12.775Z,1
2022-11-01T22:22:16.642Z,1
2022-11-01T22:24:13.180Z,1
2022-11-01T22:26:16.651Z,1
2022-11-01T22:28:13.562Z,1
2022-11-01T22:30:13.493Z,1
2022-11-01T22:32:16.892Z,1
2022-11-01T22:34:17.071Z,1
2022-11-01T22:36:13.908Z,1
2022-11-01T22:38:13.385Z,1
2022-11-01T22:40:12.798Z,1
2022-11-01T22:42:16.435Z,1
2022-11-01T22:44:13.265Z,1
2022-11-01T22:46:13.529Z,1
2022-11-01T22:48:19.069Z,1
2022-11-01T22:50:16.541Z,1
2022-11-01T22:52:20.066Z,1
2022-11-01T22:54:13.802Z,1
2022-11-01T22:56:12.784Z,1
2022-11-01T22:58:13.065Z,1
2022-11-01T23:00:13.664Z,1
2022-11-01T23:02:12.870Z,1
2022-11-01T23:04:13.533Z,1
2022-11-01T23:06:16.963Z,1
2022-11-01T23:08:13.507Z,1
2022-11-01T23:10:13.402Z,1
2022-11-01T23:12:13.575Z,1
2022-11-01T23:14:12.788Z,1
2022-11-01T23:16:13.348Z,1
2022-11-01T23:18:13.820Z,1
2022-11-01T23:20:16.895Z,1
2022-11-01T23:22:20.070Z,1
2022-11-01T23:24:13.683Z,1
2022-11-01T23:26:13.887Z,1
2022-11-01T23:28:14.851Z,1
2022-11-01T23:30:13.773Z,1
2022-11-01T23:32:12.943Z,1
2022-11-01T23:34:13.577Z,1
2022-11-01T23:36:16.689Z,1
2022-11-01T23:38:16.027Z,1
2022-11-01T23:40:13.414Z,1
2022-11-01T23:44:13.417Z,1
2022-11-01T23:48:13.536Z,1
2022-11-01T23:50:14.299Z,1
2022-11-01T23:52:13.342Z,1
2022-11-01T23:54:13.876Z,1
2022-11-01T23:56:12.851Z,1
2022-11-01T23:58:13.795Z,1
